sensor_id;sensor_type;location;lat;lon;timestamp;pressure;altitude;pressure_sealevel;temperature;humidity
16094;BME280;8151;47.824;12.092;2024-01-30T00:00:03;97696.63;;;2.62;59.43
16094;BME280;8151;47.824;12.092;2024-01-30T00:02:32;97688.31;;;2.55;59.27
16094;BME280;8151;47.824;12.092;2024-01-30T00:05:02;97697.25;;;2.51;59.54
16094;BME280;8151;47.824;12.092;2024-01-30T00:07:32;97692.88;;;2.35;59.66
16094;BME280;8151;47.824;12.092;2024-01-30T00:10:00;97691.84;;;2.22;59.88
16094;BME280;8151;47.824;12.092;2024-01-30T00:12:29;97688.91;;;2.12;60.14
16094;BME280;8151;47.824;12.092;2024-01-30T00:15:00;97692.34;;;2.13;60.14
16094;BME280;8151;47.824;12.092;2024-01-30T00:17:28;97687.03;;;2.14;60.17
16094;BME280;8151;47.824;12.092;2024-01-30T00:19:57;97700.44;;;2.08;60.42
16094;BME280;8151;47.824;12.092;2024-01-30T00:22:26;97690.91;;;2.07;60.18
16094;BME280;8151;47.824;12.092;2024-01-30T00:24:57;97692.59;;;2.08;60.13
16094;BME280;8151;47.824;12.092;2024-01-30T00:27:26;97687.97;;;2.13;60.25
16094;BME280;8151;47.824;12.092;2024-01-30T00:29:55;97692.03;;;2.19;60.07
16094;BME280;8151;47.824;12.092;2024-01-30T00:32:25;97691.00;;;2.22;59.93
16094;BME280;8151;47.824;12.092;2024-01-30T00:34:54;97686.88;;;2.17;59.90
16094;BME280;8151;47.824;12.092;2024-01-30T00:37:23;97691.59;;;2.11;60.24
16094;BME280;8151;47.824;12.092;2024-01-30T00:39:51;97691.84;;;2.06;60.28
16094;BME280;8151;47.824;12.092;2024-01-30T00:42:21;97684.16;;;2.03;59.96
16094;BME280;8151;47.824;12.092;2024-01-30T00:44:50;97680.97;;;1.98;60.16
16094;BME280;8151;47.824;12.092;2024-01-30T00:47:19;97687.78;;;2.01;60.07
16094;BME280;8151;47.824;12.092;2024-01-30T00:49:49;97690.31;;;2.02;60.04
16094;BME280;8151;47.824;12.092;2024-01-30T00:52:18;97688.81;;;1.98;60.17
16094;BME280;8151;47.824;12.092;2024-01-30T00:54:47;97690.81;;;1.93;60.29
16094;BME280;8151;47.824;12.092;2024-01-30T00:57:15;97687.94;;;1.97;60.22
16094;BME280;8151;47.824;12.092;2024-01-30T00:59:44;97690.97;;;1.90;60.48
16094;BME280;8151;47.824;12.092;2024-01-30T01:02:13;97698.97;;;1.87;60.50
16094;BME280;8151;47.824;12.092;2024-01-30T01:04:45;97696.19;;;1.90;60.27
16094;BME280;8151;47.824;12.092;2024-01-30T01:07:15;97695.34;;;1.89;60.41
16094;BME280;8151;47.824;12.092;2024-01-30T01:09:44;97696.28;;;1.88;60.48
16094;BME280;8151;47.824;12.092;2024-01-30T01:12:13;97692.50;;;1.94;60.45
16094;BME280;8151;47.824;12.092;2024-01-30T01:14:42;97690.31;;;1.86;60.71
16094;BME280;8151;47.824;12.092;2024-01-30T01:17:10;97688.75;;;1.82;60.81
16094;BME280;8151;47.824;12.092;2024-01-30T01:19:39;97686.41;;;1.77;60.97
16094;BME280;8151;47.824;12.092;2024-01-30T01:22:07;97687.09;;;1.81;61.09
16094;BME280;8151;47.824;12.092;2024-01-30T01:24:38;97681.78;;;1.83;61.05
16094;BME280;8151;47.824;12.092;2024-01-30T01:27:06;97690.53;;;1.82;60.91
16094;BME280;8151;47.824;12.092;2024-01-30T01:29:35;97683.47;;;1.84;60.74
16094;BME280;8151;47.824;12.092;2024-01-30T01:32:04;97679.88;;;1.86;60.84
16094;BME280;8151;47.824;12.092;2024-01-30T01:34:33;97688.53;;;1.87;60.89
16094;BME280;8151;47.824;12.092;2024-01-30T01:37:02;97687.00;;;1.83;60.83
16094;BME280;8151;47.824;12.092;2024-01-30T01:39:31;97684.03;;;1.73;61.09
16094;BME280;8151;47.824;12.092;2024-01-30T01:42:01;97679.16;;;1.67;61.29
16094;BME280;8151;47.824;12.092;2024-01-30T01:44:30;97684.31;;;1.51;61.55
16094;BME280;8151;47.824;12.092;2024-01-30T01:46:58;97681.19;;;1.44;61.90
16094;BME280;8151;47.824;12.092;2024-01-30T01:49:28;97684.94;;;1.38;62.08
16094;BME280;8151;47.824;12.092;2024-01-30T01:51:58;97679.34;;;1.46;61.81
16094;BME280;8151;47.824;12.092;2024-01-30T01:54:28;97679.34;;;1.46;61.70
16094;BME280;8151;47.824;12.092;2024-01-30T01:56:57;97674.13;;;1.46;61.93
16094;BME280;8151;47.824;12.092;2024-01-30T01:59:28;97670.34;;;1.52;61.51
16094;BME280;8151;47.824;12.092;2024-01-30T02:01:56;97674.63;;;1.53;61.78
16094;BME280;8151;47.824;12.092;2024-01-30T02:04:25;97673.53;;;1.57;61.39
16094;BME280;8151;47.824;12.092;2024-01-30T02:06:54;97671.88;;;1.56;61.48
16094;BME280;8151;47.824;12.092;2024-01-30T02:09:23;97676.59;;;1.49;61.57
16094;BME280;8151;47.824;12.092;2024-01-30T02:11:52;97673.72;;;1.54;61.57
16094;BME280;8151;47.824;12.092;2024-01-30T02:14:20;97676.09;;;1.58;61.32
16094;BME280;8151;47.824;12.092;2024-01-30T02:16:51;97674.63;;;1.53;61.57
16094;BME280;8151;47.824;12.092;2024-01-30T02:19:19;97677.41;;;1.50;61.76
16094;BME280;8151;47.824;12.092;2024-01-30T02:21:50;97674.38;;;1.42;61.93
16094;BME280;8151;47.824;12.092;2024-01-30T02:24:18;97678.28;;;1.33;61.79
16094;BME280;8151;47.824;12.092;2024-01-30T02:26:47;97680.81;;;1.34;62.22
16094;BME280;8151;47.824;12.092;2024-01-30T02:29:16;97675.97;;;1.44;61.91
16094;BME280;8151;47.824;12.092;2024-01-30T02:31:45;97677.25;;;1.53;61.90
16094;BME280;8151;47.824;12.092;2024-01-30T02:34:13;97676.09;;;1.58;61.36
16094;BME280;8151;47.824;12.092;2024-01-30T02:36:42;97681.00;;;1.47;61.78
16094;BME280;8151;47.824;12.092;2024-01-30T02:39:12;97682.19;;;1.42;62.02
16094;BME280;8151;47.824;12.092;2024-01-30T02:41:41;97680.09;;;1.48;61.62
16094;BME280;8151;47.824;12.092;2024-01-30T02:44:09;97682.78;;;1.47;61.82
16094;BME280;8151;47.824;12.092;2024-01-30T02:46:38;97676.81;;;1.45;61.98
16094;BME280;8151;47.824;12.092;2024-01-30T02:49:07;97680.09;;;1.48;61.89
16094;BME280;8151;47.824;12.092;2024-01-30T02:51:35;97686.16;;;1.49;61.73
16094;BME280;8151;47.824;12.092;2024-01-30T02:54:04;97673.81;;;1.52;61.96
16094;BME280;8151;47.824;12.092;2024-01-30T02:56:34;97678.00;;;1.55;61.67
16094;BME280;8151;47.824;12.092;2024-01-30T02:59:03;97683.53;;;1.49;61.81
16094;BME280;8151;47.824;12.092;2024-01-30T03:01:31;97675.97;;;1.44;62.17
16094;BME280;8151;47.824;12.092;2024-01-30T03:04:00;97673.69;;;1.38;62.21
16094;BME280;8151;47.824;12.092;2024-01-30T03:06:29;97664.91;;;1.39;62.09
16094;BME280;8151;47.824;12.092;2024-01-30T03:08:58;97662.94;;;1.44;62.01
16094;BME280;8151;47.824;12.092;2024-01-30T03:11:26;97666.81;;;1.53;61.93
16094;BME280;8151;47.824;12.092;2024-01-30T03:13:56;97668.25;;;1.58;61.58
16094;BME280;8151;47.824;12.092;2024-01-30T03:16:25;97673.06;;;1.66;61.73
16094;BME280;8151;47.824;12.092;2024-01-30T03:18:53;97660.03;;;1.66;61.52
16094;BME280;8151;47.824;12.092;2024-01-30T03:21:22;97669.34;;;1.54;61.80
16094;BME280;8151;47.824;12.092;2024-01-30T03:23:51;97667.59;;;1.37;61.93
16094;BME280;8151;47.824;12.092;2024-01-30T03:26:21;97661.25;;;1.26;62.52
16094;BME280;8151;47.824;12.092;2024-01-30T03:28:49;97655.06;;;1.28;62.64
16094;BME280;8151;47.824;12.092;2024-01-30T03:31:19;97657.34;;;1.34;62.00
16094;BME280;8151;47.824;12.092;2024-01-30T03:33:48;97653.16;;;1.32;62.33
16094;BME280;8151;47.824;12.092;2024-01-30T03:36:17;97657.66;;;1.28;62.25
16094;BME280;8151;47.824;12.092;2024-01-30T03:38:45;97659.25;;;1.31;62.06
16094;BME280;8151;47.824;12.092;2024-01-30T03:41:14;97660.84;;;1.33;62.06
16094;BME280;8151;47.824;12.092;2024-01-30T03:43:42;97662.19;;;1.25;62.36
16094;BME280;8151;47.824;12.092;2024-01-30T03:46:12;97660.97;;;1.14;62.31
16094;BME280;8151;47.824;12.092;2024-01-30T03:48:42;97668.00;;;1.12;62.48
16094;BME280;8151;47.824;12.092;2024-01-30T03:51:11;97661.06;;;1.13;62.50
16094;BME280;8151;47.824;12.092;2024-01-30T03:53:42;97664.56;;;1.12;62.66
16094;BME280;8151;47.824;12.092;2024-01-30T03:56:11;97664.41;;;1.15;62.24
16094;BME280;8151;47.824;12.092;2024-01-30T03:58:40;97656.69;;;1.13;62.42
16094;BME280;8151;47.824;12.092;2024-01-30T04:01:13;97654.75;;;1.17;62.40
16094;BME280;8151;47.824;12.092;2024-01-30T04:03:43;97655.59;;;1.17;62.13
16094;BME280;8151;47.824;12.092;2024-01-30T04:06:12;97648.16;;;1.10;62.60
16094;BME280;8151;47.824;12.092;2024-01-30T04:08:41;97662.41;;;1.03;62.75
16094;BME280;8151;47.824;12.092;2024-01-30T04:11:09;97657.97;;;1.05;62.21
16094;BME280;8151;47.824;12.092;2024-01-30T04:13:38;97662.28;;;1.06;62.51
16094;BME280;8151;47.824;12.092;2024-01-30T04:16:06;97663.97;;;1.07;62.64
16094;BME280;8151;47.824;12.092;2024-01-30T04:18:35;97662.22;;;1.07;62.36
16094;BME280;8151;47.824;12.092;2024-01-30T04:21:05;97664.75;;;1.09;62.72
16094;BME280;8151;47.824;12.092;2024-01-30T04:23:34;97655.66;;;1.16;62.03
16094;BME280;8151;47.824;12.092;2024-01-30T04:26:03;97658.13;;;1.19;62.10
16094;BME280;8151;47.824;12.092;2024-01-30T04:28:32;97654.59;;;1.20;62.20
16094;BME280;8151;47.824;12.092;2024-01-30T04:31:00;97656.44;;;1.18;62.19
16094;BME280;8151;47.824;12.092;2024-01-30T04:33:29;97664.25;;;1.18;62.27
16094;BME280;8151;47.824;12.092;2024-01-30T04:35:58;97666.41;;;1.27;62.24
16094;BME280;8151;47.824;12.092;2024-01-30T04:38:28;97658.44;;;1.30;62.18
16094;BME280;8151;47.824;12.092;2024-01-30T04:40:56;97655.81;;;1.30;61.81
16094;BME280;8151;47.824;12.092;2024-01-30T04:43:25;97662.72;;;1.31;62.06
16094;BME280;8151;47.824;12.092;2024-01-30T04:45:54;97660.34;;;1.27;62.04
16094;BME280;8151;47.824;12.092;2024-01-30T04:48:23;97655.44;;;1.21;62.10
16094;BME280;8151;47.824;12.092;2024-01-30T04:50:52;97664.41;;;1.15;62.61
16094;BME280;8151;47.824;12.092;2024-01-30T04:53:21;97658.75;;;1.07;62.61
16094;BME280;8151;47.824;12.092;2024-01-30T04:55:51;97666.03;;;1.00;62.91
16094;BME280;8151;47.824;12.092;2024-01-30T04:58:20;97668.25;;;0.90;63.03
16094;BME280;8151;47.824;12.092;2024-01-30T05:00:49;97666.78;;;0.85;63.04
16094;BME280;8151;47.824;12.092;2024-01-30T05:03:19;97662.41;;;0.85;63.21
16094;BME280;8151;47.824;12.092;2024-01-30T05:05:49;97668.88;;;0.78;63.40
16094;BME280;8151;47.824;12.092;2024-01-30T05:08:18;97674.06;;;0.78;63.30
16094;BME280;8151;47.824;12.092;2024-01-30T05:10:46;97670.84;;;0.73;63.19
16094;BME280;8151;47.824;12.092;2024-01-30T05:13:17;97671.97;;;0.67;63.42
16094;BME280;8151;47.824;12.092;2024-01-30T05:15:45;97675.72;;;0.62;63.24
16094;BME280;8151;47.824;12.092;2024-01-30T05:18:14;97672.97;;;0.65;63.47
16094;BME280;8151;47.824;12.092;2024-01-30T05:20:43;97677.91;;;0.71;63.09
16094;BME280;8151;47.824;12.092;2024-01-30T05:23:12;97678.91;;;0.68;63.01
16094;BME280;8151;47.824;12.092;2024-01-30T05:25:41;97675.72;;;0.62;63.39
16094;BME280;8151;47.824;12.092;2024-01-30T05:28:10;97680.72;;;0.66;63.40
16094;BME280;8151;47.824;12.092;2024-01-30T05:30:40;97677.75;;;0.74;63.37
16094;BME280;8151;47.824;12.092;2024-01-30T05:33:09;97674.84;;;0.80;62.87
16094;BME280;8151;47.824;12.092;2024-01-30T05:35:39;97671.94;;;0.86;62.69
16094;BME280;8151;47.824;12.092;2024-01-30T05:38:08;97680.13;;;0.96;62.49
16094;BME280;8151;47.824;12.092;2024-01-30T05:40:36;97678.06;;;1.03;62.68
16094;BME280;8151;47.824;12.092;2024-01-30T05:43:05;97676.22;;;1.05;62.45
16094;BME280;8151;47.824;12.092;2024-01-30T05:45:35;97677.97;;;1.04;62.49
16094;BME280;8151;47.824;12.092;2024-01-30T05:48:05;97686.63;;;1.05;62.54
16094;BME280;8151;47.824;12.092;2024-01-30T05:50:34;97684.13;;;1.03;62.60
16094;BME280;8151;47.824;12.092;2024-01-30T05:53:03;97683.25;;;1.03;63.14
16094;BME280;8151;47.824;12.092;2024-01-30T05:55:32;97686.75;;;1.03;62.79
16094;BME280;8151;47.824;12.092;2024-01-30T05:58:00;97684.81;;;1.07;62.62
16094;BME280;8151;47.824;12.092;2024-01-30T06:00:29;97683.66;;;1.12;62.75
16094;BME280;8151;47.824;12.092;2024-01-30T06:02:58;97677.53;;;1.13;63.27
16094;BME280;8151;47.824;12.092;2024-01-30T06:05:28;97683.50;;;1.15;62.96
16094;BME280;8151;47.824;12.092;2024-01-30T06:07:56;97688.19;;;1.09;63.03
16094;BME280;8151;47.824;12.092;2024-01-30T06:10:25;97680.84;;;1.00;63.06
16094;BME280;8151;47.824;12.092;2024-01-30T06:12:54;97677.53;;;0.96;63.12
16094;BME280;8151;47.824;12.092;2024-01-30T06:15:22;97674.03;;;0.97;63.44
16094;BME280;8151;47.824;12.092;2024-01-30T06:17:51;97684.91;;;1.05;63.04
16094;BME280;8151;47.824;12.092;2024-01-30T06:20:20;97684.91;;;1.05;62.87
16094;BME280;8151;47.824;12.092;2024-01-30T06:22:50;97689.03;;;1.09;62.99
16094;BME280;8151;47.824;12.092;2024-01-30T06:25:19;97681.44;;;1.05;62.84
16094;BME280;8151;47.824;12.092;2024-01-30T06:27:48;97687.13;;;0.95;63.18
16094;BME280;8151;47.824;12.092;2024-01-30T06:30:16;97687.69;;;0.83;63.24
16094;BME280;8151;47.824;12.092;2024-01-30T06:32:45;97684.56;;;0.76;63.72
16094;BME280;8151;47.824;12.092;2024-01-30T06:35:14;97690.00;;;0.72;63.64
16094;BME280;8151;47.824;12.092;2024-01-30T06:37:45;97687.47;;;0.70;63.57
16094;BME280;8151;47.824;12.092;2024-01-30T06:40:15;97696.59;;;0.79;63.35
16094;BME280;8151;47.824;12.092;2024-01-30T06:42:44;97694.63;;;0.84;63.21
16094;BME280;8151;47.824;12.092;2024-01-30T06:45:13;97698.06;;;0.85;63.38
16094;BME280;8151;47.824;12.092;2024-01-30T06:47:42;97698.81;;;0.87;63.09
16094;BME280;8151;47.824;12.092;2024-01-30T06:50:11;97703.06;;;0.89;62.86
16094;BME280;8151;47.824;12.092;2024-01-30T06:52:40;97702.06;;;0.92;63.44
16094;BME280;8151;47.824;12.092;2024-01-30T06:55:09;97709.56;;;0.98;63.15
16094;BME280;8151;47.824;12.092;2024-01-30T06:57:39;97703.34;;;1.01;62.73
16094;BME280;8151;47.824;12.092;2024-01-30T07:00:08;97711.09;;;1.02;63.17
16094;BME280;8151;47.824;12.092;2024-01-30T07:02:38;97716.56;;;0.97;63.04
16094;BME280;8151;47.824;12.092;2024-01-30T07:05:07;97712.25;;;0.96;63.10
16094;BME280;8151;47.824;12.092;2024-01-30T07:07:36;97715.47;;;1.02;63.05
16094;BME280;8151;47.824;12.092;2024-01-30T07:10:06;97709.63;;;0.96;62.91
16094;BME280;8151;47.824;12.092;2024-01-30T07:12:35;97716.63;;;0.96;63.11
16094;BME280;8151;47.824;12.092;2024-01-30T07:15:05;97707.50;;;1.05;62.88
16094;BME280;8151;47.824;12.092;2024-01-30T07:17:36;97714.53;;;1.20;62.80
16094;BME280;8151;47.824;12.092;2024-01-30T07:20:06;97717.06;;;1.39;62.58
16094;BME280;8151;47.824;12.092;2024-01-30T07:22:41;97723.03;;;1.58;62.31
16094;BME280;8151;47.824;12.092;2024-01-30T07:25:09;97716.53;;;1.67;61.95
16094;BME280;8151;47.824;12.092;2024-01-30T07:27:38;97727.47;;;1.74;61.96
16094;BME280;8151;47.824;12.092;2024-01-30T07:30:09;97729.09;;;1.76;62.25
16094;BME280;8151;47.824;12.092;2024-01-30T07:32:37;97725.41;;;1.81;62.05
16094;BME280;8151;47.824;12.092;2024-01-30T07:35:07;97733.75;;;1.87;62.22
16094;BME280;8151;47.824;12.092;2024-01-30T07:37:36;97735.09;;;1.94;62.24
16094;BME280;8151;47.824;12.092;2024-01-30T07:40:07;97727.22;;;1.96;62.37
16094;BME280;8151;47.824;12.092;2024-01-30T07:42:36;97734.69;;;2.02;62.46
16094;BME280;8151;47.824;12.092;2024-01-30T07:45:05;97733.13;;;2.15;62.57
16094;BME280;8151;47.824;12.092;2024-01-30T07:47:35;97732.38;;;2.29;61.87
16094;BME280;8151;47.824;12.092;2024-01-30T07:50:05;97720.50;;;2.40;62.25
16094;BME280;8151;47.824;12.092;2024-01-30T07:52:34;97724.22;;;2.51;61.97
16094;BME280;8151;47.824;12.092;2024-01-30T07:55:04;97726.25;;;2.62;61.91
16094;BME280;8151;47.824;12.092;2024-01-30T07:57:35;97734.13;;;2.76;61.87
16094;BME280;8151;47.824;12.092;2024-01-30T08:00:04;97732.44;;;2.91;61.71
16094;BME280;8151;47.824;12.092;2024-01-30T08:02:36;97734.19;;;3.07;61.70
16094;BME280;8151;47.824;12.092;2024-01-30T08:05:05;97730.69;;;3.22;61.69
16094;BME280;8151;47.824;12.092;2024-01-30T08:07:33;97727.19;;;3.38;61.53
16094;BME280;8151;47.824;12.092;2024-01-30T08:10:02;97730.66;;;3.52;61.59
16094;BME280;8151;47.824;12.092;2024-01-30T08:12:31;97727.22;;;3.66;61.78
16094;BME280;8151;47.824;12.092;2024-01-30T08:15:00;97723.88;;;3.79;61.94
16094;BME280;8151;47.824;12.092;2024-01-30T08:17:30;97732.03;;;3.88;61.76
16094;BME280;8151;47.824;12.092;2024-01-30T08:20:00;97721.91;;;3.97;62.09
16094;BME280;8151;47.824;12.092;2024-01-30T08:22:32;97723.88;;;4.07;61.90
16094;BME280;8151;47.824;12.092;2024-01-30T08:25:00;97729.41;;;4.17;61.79
16094;BME280;8151;47.824;12.092;2024-01-30T08:27:29;97720.78;;;4.29;61.44
16094;BME280;8151;47.824;12.092;2024-01-30T08:29:58;97728.81;;;4.41;61.15
16094;BME280;8151;47.824;12.092;2024-01-30T08:32:27;97735.16;;;4.51;60.96
16094;BME280;8151;47.824;12.092;2024-01-30T08:34:55;97730.25;;;4.59;60.96
16094;BME280;8151;47.824;12.092;2024-01-30T08:37:26;97730.72;;;4.66;61.17
16094;BME280;8151;47.824;12.092;2024-01-30T08:39:55;97739.78;;;4.74;61.30
16094;BME280;8151;47.824;12.092;2024-01-30T08:42:24;97732.06;;;4.86;60.49
16094;BME280;8151;47.824;12.092;2024-01-30T08:44:52;97733.25;;;4.95;60.80
16094;BME280;8151;47.824;12.092;2024-01-30T08:47:21;97732.63;;;5.04;60.67
16094;BME280;8151;47.824;12.092;2024-01-30T08:49:50;97728.59;;;5.12;60.58
16094;BME280;8151;47.824;12.092;2024-01-30T08:52:19;97731.53;;;5.21;59.85
16094;BME280;8151;47.824;12.092;2024-01-30T08:54:49;97736.28;;;5.28;60.06
16094;BME280;8151;47.824;12.092;2024-01-30T08:57:18;97740.94;;;5.38;59.88
16094;BME280;8151;47.824;12.092;2024-01-30T08:59:47;97730.75;;;5.46;59.87
16094;BME280;8151;47.824;12.092;2024-01-30T09:02:15;97729.31;;;5.55;59.25
16094;BME280;8151;47.824;12.092;2024-01-30T09:04:45;97726.06;;;5.64;59.47
16094;BME280;8151;47.824;12.092;2024-01-30T09:07:14;97727.13;;;5.74;58.89
16094;BME280;8151;47.824;12.092;2024-01-30T09:09:43;97731.84;;;5.82;58.93
16094;BME280;8151;47.824;12.092;2024-01-30T09:12:13;97737.41;;;5.90;59.28
16094;BME280;8151;47.824;12.092;2024-01-30T09:14:43;97735.13;;;5.98;58.85
16094;BME280;8151;47.824;12.092;2024-01-30T09:17:11;97732.94;;;6.05;59.07
16094;BME280;8151;47.824;12.092;2024-01-30T09:19:40;97743.84;;;6.11;58.85
16094;BME280;8151;47.824;12.092;2024-01-30T09:22:09;97739.88;;;6.19;58.56
16094;BME280;8151;47.824;12.092;2024-01-30T09:24:38;97741.09;;;6.26;58.66
16094;BME280;8151;47.824;12.092;2024-01-30T09:27:06;97745.81;;;6.34;58.28
16094;BME280;8151;47.824;12.092;2024-01-30T09:29:36;97748.75;;;6.42;58.10
16094;BME280;8151;47.824;12.092;2024-01-30T09:32:06;97736.84;;;6.49;58.17
16094;BME280;8151;47.824;12.092;2024-01-30T09:34:36;97739.78;;;6.57;57.72
16094;BME280;8151;47.824;12.092;2024-01-30T09:37:07;97747.09;;;6.65;57.95
16094;BME280;8151;47.824;12.092;2024-01-30T09:39:36;97741.44;;;6.71;57.68
16094;BME280;8151;47.824;12.092;2024-01-30T09:44:53;97747.16;;;6.89;57.34
16094;BME280;8151;47.824;12.092;2024-01-30T09:47:22;97743.00;;;6.98;57.14
16094;BME280;8151;47.824;12.092;2024-01-30T09:49:52;97741.41;;;7.08;57.17
16094;BME280;8151;47.824;12.092;2024-01-30T09:52:21;97745.22;;;7.15;56.96
16094;BME280;8151;47.824;12.092;2024-01-30T09:54:51;97749.84;;;7.24;56.76
16094;BME280;8151;47.824;12.092;2024-01-30T09:57:20;97739.56;;;7.33;56.70
16094;BME280;8151;47.824;12.092;2024-01-30T09:59:49;97744.25;;;7.40;56.43
16094;BME280;8151;47.824;12.092;2024-01-30T10:02:21;97744.56;;;7.48;56.28
16094;BME280;8151;47.824;12.092;2024-01-30T10:04:51;97734.28;;;7.57;56.18
16094;BME280;8151;47.824;12.092;2024-01-30T10:07:20;97738.00;;;7.65;56.01
16094;BME280;8151;47.824;12.092;2024-01-30T10:09:49;97737.31;;;7.75;56.00
16094;BME280;8151;47.824;12.092;2024-01-30T10:12:18;97740.19;;;7.83;55.87
16094;BME280;8151;47.824;12.092;2024-01-30T10:14:46;97728.94;;;7.92;55.73
16094;BME280;8151;47.824;12.092;2024-01-30T10:17:15;97733.63;;;8.00;55.57
16094;BME280;8151;47.824;12.092;2024-01-30T10:20:00;97725.84;;;8.09;55.46
16094;BME280;8151;47.824;12.092;2024-01-30T10:22:29;97727.06;;;8.17;55.62
16094;BME280;8151;47.824;12.092;2024-01-30T10:24:58;97716.03;;;8.23;55.09
16094;BME280;8151;47.824;12.092;2024-01-30T10:27:32;97718.91;;;8.31;55.09
16094;BME280;8151;47.824;12.092;2024-01-30T10:30:01;97716.63;;;8.38;55.20
16094;BME280;8151;47.824;12.092;2024-01-30T10:32:31;97723.97;;;8.45;54.65
16094;BME280;8151;47.824;12.092;2024-01-30T10:35:01;97710.41;;;8.50;54.77
16094;BME280;8151;47.824;12.092;2024-01-30T10:37:31;97708.97;;;8.57;54.64
16094;BME280;8151;47.824;12.092;2024-01-30T10:40:03;97709.06;;;8.67;54.57
16094;BME280;8151;47.824;12.092;2024-01-30T10:42:36;97706.53;;;8.77;54.57
16094;BME280;8151;47.824;12.092;2024-01-30T10:45:07;97698.69;;;8.86;54.13
16094;BME280;8151;47.824;12.092;2024-01-30T10:47:37;97698.66;;;8.98;54.34
16094;BME280;8151;47.824;12.092;2024-01-30T10:50:09;97685.78;;;9.04;53.73
16094;BME280;8151;47.824;12.092;2024-01-30T10:52:40;97686.25;;;9.10;53.87
16094;BME280;8151;47.824;12.092;2024-01-30T10:55:11;97690.75;;;9.19;53.34
16094;BME280;8151;47.824;12.092;2024-01-30T10:57:40;97683.06;;;9.27;53.26
16094;BME280;8151;47.824;12.092;2024-01-30T11:00:11;97677.84;;;9.37;53.30
16094;BME280;8151;47.824;12.092;2024-01-30T11:02:44;97670.81;;;9.47;52.79
16094;BME280;8151;47.824;12.092;2024-01-30T11:05:23;97669.22;;;9.56;52.18
16094;BME280;8151;47.824;12.092;2024-01-30T11:08:10;97662.44;;;9.63;52.51
16094;BME280;8151;47.824;12.092;2024-01-30T11:10:46;97664.28;;;9.72;52.34
16094;BME280;8151;47.824;12.092;2024-01-30T11:13:15;97667.00;;;9.82;52.47
16094;BME280;8151;47.824;12.092;2024-01-30T11:15:43;97671.75;;;9.88;52.48
16094;BME280;8151;47.824;12.092;2024-01-30T11:18:23;97669.28;;;9.96;51.50
16094;BME280;8151;47.824;12.092;2024-01-30T11:20:56;97666.81;;;10.04;51.66
16094;BME280;8151;47.824;12.092;2024-01-30T11:23:26;97661.97;;;10.10;51.92
16094;BME280;8151;47.824;12.092;2024-01-30T11:25:56;97661.84;;;10.11;51.46
16094;BME280;8151;47.824;12.092;2024-01-30T11:28:32;97654.72;;;10.12;51.72
16094;BME280;8151;47.824;12.092;2024-01-30T11:31:05;97661.16;;;10.19;51.12
16094;BME280;8151;47.824;12.092;2024-01-30T11:33:35;97655.81;;;10.30;51.35
16094;BME280;8151;47.824;12.092;2024-01-30T11:36:06;97650.53;;;10.40;50.98
16094;BME280;8151;47.824;12.092;2024-01-30T11:38:35;97647.91;;;10.50;51.24
16094;BME280;8151;47.824;12.092;2024-01-30T11:41:05;97643.75;;;10.57;51.07
16094;BME280;8151;47.824;12.092;2024-01-30T11:43:35;97639.56;;;10.64;50.40
16094;BME280;8151;47.824;12.092;2024-01-30T11:46:06;97640.28;;;10.66;50.65
16094;BME280;8151;47.824;12.092;2024-01-30T11:48:35;97640.72;;;10.71;50.63
16094;BME280;8151;47.824;12.092;2024-01-30T11:51:05;97631.25;;;10.78;50.30
16094;BME280;8151;47.824;12.092;2024-01-30T11:53:34;97627.47;;;10.81;50.31
16094;BME280;8151;47.824;12.092;2024-01-30T11:56:06;97627.91;;;10.76;49.96
16094;BME280;8151;47.824;12.092;2024-01-30T11:58:35;97623.44;;;10.77;49.83
16094;BME280;8151;47.824;12.092;2024-01-30T12:01:04;97625.25;;;10.86;49.49
16094;BME280;8151;47.824;12.092;2024-01-30T12:03:33;97613.97;;;10.94;49.97
16094;BME280;8151;47.824;12.092;2024-01-30T12:06:03;97612.00;;;11.06;49.45
16094;BME280;8151;47.824;12.092;2024-01-30T12:08:33;97604.31;;;11.12;49.34
16094;BME280;8151;47.824;12.092;2024-01-30T12:11:06;97603.63;;;11.20;48.88
16094;BME280;8151;47.824;12.092;2024-01-30T12:13:35;97607.94;;;11.31;48.79
16094;BME280;8151;47.824;12.092;2024-01-30T12:16:05;97604.72;;;11.37;48.58
16094;BME280;8151;47.824;12.092;2024-01-30T12:18:34;97602.19;;;11.45;48.78
16094;BME280;8151;47.824;12.092;2024-01-30T12:21:03;97596.16;;;11.53;48.43
16094;BME280;8151;47.824;12.092;2024-01-30T12:23:34;97595.31;;;11.62;48.27
16094;BME280;8151;47.824;12.092;2024-01-30T12:26:04;97594.28;;;11.73;48.17
16094;BME280;8151;47.824;12.092;2024-01-30T12:28:34;97585.91;;;11.77;48.21
16094;BME280;8151;47.824;12.092;2024-01-30T12:31:04;97584.19;;;11.86;47.98
16094;BME280;8151;47.824;12.092;2024-01-30T12:33:33;97586.69;;;11.97;47.93
16094;BME280;8151;47.824;12.092;2024-01-30T12:36:02;97589.16;;;12.09;47.87
16094;BME280;8151;47.824;12.092;2024-01-30T12:38:33;97582.34;;;12.24;47.66
16094;BME280;8151;47.824;12.092;2024-01-30T12:41:02;97586.09;;;12.31;47.65
16094;BME280;8151;47.824;12.092;2024-01-30T12:43:31;97573.38;;;12.35;47.43
16094;BME280;8151;47.824;12.092;2024-01-30T12:46:05;97576.38;;;12.40;47.62
16094;BME280;8151;47.824;12.092;2024-01-30T12:48:34;97572.91;;;12.57;47.40
16094;BME280;8151;47.824;12.092;2024-01-30T12:51:04;97573.38;;;12.71;47.31
16094;BME280;8151;47.824;12.092;2024-01-30T12:53:34;97566.84;;;12.83;47.54
16094;BME280;8151;47.824;12.092;2024-01-30T12:56:03;97576.25;;;12.95;47.46
16094;BME280;8151;47.824;12.092;2024-01-30T12:58:32;97568.34;;;13.04;47.31
16094;BME280;8151;47.824;12.092;2024-01-30T13:01:04;97569.59;;;13.17;46.91
16094;BME280;8151;47.824;12.092;2024-01-30T13:03:32;97567.34;;;13.23;47.20
16094;BME280;8151;47.824;12.092;2024-01-30T13:06:04;97561.28;;;13.30;47.01
16094;BME280;8151;47.824;12.092;2024-01-30T13:08:34;97567.13;;;13.34;46.92
16094;BME280;8151;47.824;12.092;2024-01-30T13:11:02;97566.34;;;13.42;46.70
16094;BME280;8151;47.824;12.092;2024-01-30T13:13:31;97566.91;;;13.53;46.88
16094;BME280;8151;47.824;12.092;2024-01-30T13:16:00;97562.44;;;13.62;46.66
16094;BME280;8151;47.824;12.092;2024-01-30T13:18:29;97567.13;;;13.68;46.50
16094;BME280;8151;47.824;12.092;2024-01-30T13:20:58;97562.84;;;13.75;46.25
16094;BME280;8151;47.824;12.092;2024-01-30T13:23:26;97567.06;;;13.86;46.25